sensor_id;sensor_type;location;lat;lon;timestamp;P1;durP1;ratioP1;P2;durP2;ratioP2
4835;SDS011;66719;51.226;6.902;2023-04-01T00:01:04;9.00;;;1.50;;
4835;SDS011;66719;51.226;6.902;2023-04-01T00:03:32;9.90;;;1.67;;
4835;SDS011;66719;51.226;6.902;2023-04-01T00:06:00;8.87;;;1.70;;
4835;SDS011;66719;51.226;6.902;2023-04-01T00:08:27;8.20;;;1.60;;
4835;SDS011;66719;51.226;6.902;2023-04-01T00:10:54;10.63;;;1.50;;
4835;SDS011;66719;51.226;6.902;2023-04-01T00:13:21;9.23;;;1.70;;
4835;SDS011;66719;51.226;6.902;2023-04-01T00:15:47;9.97;;;1.50;;
4835;SDS011;66719;51.226;6.902;2023-04-01T00:18:14;9.13;;;2.13;;
4835;SDS011;66719;51.226;6.902;2023-04-01T00:20:45;10.40;;;1.50;;
4835;SDS011;66719;51.226;6.902;2023-04-01T00:23:13;8.40;;;1.53;;
4835;SDS011;66719;51.226;6.902;2023-04-01T00:25:40;8.97;;;1.30;;
4835;SDS011;66719;51.226;6.902;2023-04-01T00:28:07;10.60;;;1.70;;
4835;SDS011;66719;51.226;6.902;2023-04-01T00:30:34;7.80;;;1.60;;
4835;SDS011;66719;51.226;6.902;2023-04-01T00:33:01;6.77;;;1.20;;
4835;SDS011;66719;51.226;6.902;2023-04-01T00:35:28;8.67;;;1.47;;
4835;SDS011;66719;51.226;6.902;2023-04-01T00:37:56;10.97;;;1.90;;
4835;SDS011;66719;51.226;6.902;2023-04-01T00:42:57;7.27;;;1.27;;
4835;SDS011;66719;51.226;6.902;2023-04-01T00:45:31;8.30;;;1.43;;
4835;SDS011;66719;51.226;6.902;2023-04-01T00:48:06;7.07;;;1.40;;
4835;SDS011;66719;51.226;6.902;2023-04-01T00:50:36;8.43;;;1.40;;
4835;SDS011;66719;51.226;6.902;2023-04-01T00:53:05;9.03;;;1.63;;
4835;SDS011;66719;51.226;6.902;2023-04-01T00:55:35;9.30;;;1.60;;
4835;SDS011;66719;51.226;6.902;2023-04-01T00:58:05;14.17;;;1.83;;
4835;SDS011;66719;51.226;6.902;2023-04-01T01:00:34;9.03;;;1.53;;
4835;SDS011;66719;51.226;6.902;2023-04-01T01:03:02;7.07;;;1.40;;
4835;SDS011;66719;51.226;6.902;2023-04-01T01:05:44;7.60;;;1.40;;
4835;SDS011;66719;51.226;6.902;2023-04-01T01:08:39;9.30;;;1.53;;
4835;SDS011;66719;51.226;6.902;2023-04-01T01:11:08;9.07;;;1.60;;
4835;SDS011;66719;51.226;6.902;2023-04-01T01:16:30;7.80;;;1.63;;
4835;SDS011;66719;51.226;6.902;2023-04-01T01:22:14;8.57;;;1.50;;
4835;SDS011;66719;51.226;6.902;2023-04-01T01:30:39;10.20;;;1.70;;
4835;SDS011;66719;51.226;6.902;2023-04-01T01:36:09;8.90;;;1.40;;
4835;SDS011;66719;51.226;6.902;2023-04-01T01:38:40;10.17;;;1.80;;
4835;SDS011;66719;51.226;6.902;2023-04-01T01:41:07;9.90;;;1.73;;
4835;SDS011;66719;51.226;6.902;2023-04-01T01:43:40;8.87;;;1.27;;
4835;SDS011;66719;51.226;6.902;2023-04-01T01:46:13;8.50;;;1.73;;
4835;SDS011;66719;51.226;6.902;2023-04-01T01:48:43;7.63;;;1.40;;
4835;SDS011;66719;51.226;6.902;2023-04-01T01:51:11;9.17;;;1.40;;
4835;SDS011;66719;51.226;6.902;2023-04-01T01:53:38;16.63;;;2.13;;
4835;SDS011;66719;51.226;6.902;2023-04-01T01:56:05;8.93;;;1.63;;
4835;SDS011;66719;51.226;6.902;2023-04-01T01:58:32;8.17;;;1.23;;
4835;SDS011;66719;51.226;6.902;2023-04-01T02:01:07;6.50;;;1.30;;
4835;SDS011;66719;51.226;6.902;2023-04-01T02:03:47;8.00;;;1.40;;
4835;SDS011;66719;51.226;6.902;2023-04-01T02:06:15;9.03;;;1.70;;
4835;SDS011;66719;51.226;6.902;2023-04-01T02:08:55;7.63;;;1.30;;
4835;SDS011;66719;51.226;6.902;2023-04-01T02:11:47;7.37;;;1.40;;
4835;SDS011;66719;51.226;6.902;2023-04-01T02:14:19;7.60;;;1.37;;
4835;SDS011;66719;51.226;6.902;2023-04-01T02:16:57;6.60;;;1.17;;
4835;SDS011;66719;51.226;6.902;2023-04-01T02:19:27;7.47;;;1.37;;
4835;SDS011;66719;51.226;6.902;2023-04-01T02:22:02;8.60;;;1.30;;
4835;SDS011;66719;51.226;6.902;2023-04-01T02:24:31;7.23;;;1.27;;
4835;SDS011;66719;51.226;6.902;2023-04-01T02:27:01;7.60;;;1.40;;
4835;SDS011;66719;51.226;6.902;2023-04-01T02:29:29;8.13;;;1.20;;
4835;SDS011;66719;51.226;6.902;2023-04-01T02:31:56;7.57;;;1.57;;
4835;SDS011;66719;51.226;6.902;2023-04-01T02:34:24;7.17;;;1.23;;
4835;SDS011;66719;51.226;6.902;2023-04-01T02:36:52;8.20;;;1.43;;
4835;SDS011;66719;51.226;6.902;2023-04-01T02:39:20;9.63;;;1.30;;
4835;SDS011;66719;51.226;6.902;2023-04-01T02:41:47;8.60;;;1.40;;
4835;SDS011;66719;51.226;6.902;2023-04-01T02:44:15;10.07;;;1.80;;
4835;SDS011;66719;51.226;6.902;2023-04-01T02:46:42;8.70;;;1.63;;
4835;SDS011;66719;51.226;6.902;2023-04-01T02:49:09;7.37;;;1.40;;
4835;SDS011;66719;51.226;6.902;2023-04-01T02:51:36;7.17;;;1.30;;
4835;SDS011;66719;51.226;6.902;2023-04-01T02:54:02;8.93;;;1.40;;
4835;SDS011;66719;51.226;6.902;2023-04-01T02:56:29;6.50;;;1.10;;
4835;SDS011;66719;51.226;6.902;2023-04-01T02:58:55;8.10;;;1.40;;
4835;SDS011;66719;51.226;6.902;2023-04-01T03:01:22;9.83;;;1.30;;
4835;SDS011;66719;51.226;6.902;2023-04-01T03:03:49;8.40;;;1.80;;
4835;SDS011;66719;51.226;6.902;2023-04-01T03:06:16;8.60;;;1.40;;
4835;SDS011;66719;51.226;6.902;2023-04-01T03:08:43;8.80;;;1.63;;
4835;SDS011;66719;51.226;6.902;2023-04-01T03:11:10;8.77;;;1.37;;
4835;SDS011;66719;51.226;6.902;2023-04-01T03:13:37;7.00;;;1.37;;
4835;SDS011;66719;51.226;6.902;2023-04-01T03:16:04;7.63;;;1.30;;
4835;SDS011;66719;51.226;6.902;2023-04-01T03:18:31;6.90;;;1.20;;
4835;SDS011;66719;51.226;6.902;2023-04-01T03:20:57;8.00;;;1.40;;
4835;SDS011;66719;51.226;6.902;2023-04-01T03:23:38;9.03;;;1.40;;
4835;SDS011;66719;51.226;6.902;2023-04-01T03:26:05;9.03;;;1.30;;
4835;SDS011;66719;51.226;6.902;2023-04-01T03:28:31;7.07;;;1.20;;
4835;SDS011;66719;51.226;6.902;2023-04-01T03:30:58;7.03;;;1.30;;
4835;SDS011;66719;51.226;6.902;2023-04-01T03:33:24;8.90;;;1.60;;
4835;SDS011;66719;51.226;6.902;2023-04-01T03:35:51;8.10;;;1.40;;
4835;SDS011;66719;51.226;6.902;2023-04-01T03:38:18;8.03;;;1.60;;
4835;SDS011;66719;51.226;6.902;2023-04-01T03:40:45;6.10;;;1.10;;
4835;SDS011;66719;51.226;6.902;2023-04-01T03:43:11;8.83;;;1.40;;
4835;SDS011;66719;51.226;6.902;2023-04-01T03:45:48;7.97;;;1.27;;
4835;SDS011;66719;51.226;6.902;2023-04-01T03:48:16;6.97;;;1.23;;
4835;SDS011;66719;51.226;6.902;2023-04-01T03:50:43;7.27;;;1.27;;
4835;SDS011;66719;51.226;6.902;2023-04-01T03:53:11;6.97;;;1.33;;
4835;SDS011;66719;51.226;6.902;2023-04-01T03:55:38;8.97;;;1.77;;
4835;SDS011;66719;51.226;6.902;2023-04-01T03:58:06;7.00;;;1.17;;
4835;SDS011;66719;51.226;6.902;2023-04-01T04:00:33;6.83;;;1.10;;
4835;SDS011;66719;51.226;6.902;2023-04-01T04:03:00;7.07;;;1.20;;
4835;SDS011;66719;51.226;6.902;2023-04-01T04:05:27;10.03;;;1.30;;
4835;SDS011;66719;51.226;6.902;2023-04-01T04:07:54;8.60;;;1.43;;
4835;SDS011;66719;51.226;6.902;2023-04-01T04:10:20;6.37;;;1.30;;
4835;SDS011;66719;51.226;6.902;2023-04-01T04:12:49;8.50;;;1.20;;
4835;SDS011;66719;51.226;6.902;2023-04-01T04:15:16;6.47;;;1.33;;
4835;SDS011;66719;51.226;6.902;2023-04-01T04:17:44;7.17;;;1.20;;
4835;SDS011;66719;51.226;6.902;2023-04-01T04:20:11;8.73;;;1.30;;
4835;SDS011;66719;51.226;6.902;2023-04-01T04:22:38;7.10;;;1.53;;
4835;SDS011;66719;51.226;6.902;2023-04-01T04:25:04;9.10;;;1.30;;
4835;SDS011;66719;51.226;6.902;2023-04-01T04:27:31;7.47;;;1.67;;
4835;SDS011;66719;51.226;6.902;2023-04-01T04:29:59;7.07;;;1.07;;
4835;SDS011;66719;51.226;6.902;2023-04-01T04:32:25;6.77;;;1.50;;
4835;SDS011;66719;51.226;6.902;2023-04-01T04:34:54;7.73;;;1.33;;
4835;SDS011;66719;51.226;6.902;2023-04-01T04:37:20;8.00;;;1.27;;
4835;SDS011;66719;51.226;6.902;2023-04-01T04:39:46;10.40;;;1.40;;
4835;SDS011;66719;51.226;6.902;2023-04-01T04:42:13;7.90;;;1.50;;
4835;SDS011;66719;51.226;6.902;2023-04-01T04:44:39;7.20;;;1.37;;
4835;SDS011;66719;51.226;6.902;2023-04-01T04:47:06;6.97;;;1.40;;
4835;SDS011;66719;51.226;6.902;2023-04-01T04:49:33;7.70;;;1.70;;
4835;SDS011;66719;51.226;6.902;2023-04-01T04:51:59;6.10;;;1.20;;
4835;SDS011;66719;51.226;6.902;2023-04-01T04:54:25;8.20;;;1.60;;
4835;SDS011;66719;51.226;6.902;2023-04-01T04:56:52;7.67;;;1.30;;
4835;SDS011;66719;51.226;6.902;2023-04-01T04:59:19;8.57;;;1.50;;
4835;SDS011;66719;51.226;6.902;2023-04-01T05:01:46;7.90;;;1.20;;
4835;SDS011;66719;51.226;6.902;2023-04-01T05:04:13;6.57;;;1.30;;
4835;SDS011;66719;51.226;6.902;2023-04-01T05:06:39;6.13;;;1.20;;
4835;SDS011;66719;51.226;6.902;2023-04-01T05:09:05;6.77;;;1.40;;
4835;SDS011;66719;51.226;6.902;2023-04-01T05:11:32;8.60;;;1.40;;
4835;SDS011;66719;51.226;6.902;2023-04-01T05:13:58;7.97;;;1.50;;
4835;SDS011;66719;51.226;6.902;2023-04-01T05:16:25;9.07;;;2.00;;
4835;SDS011;66719;51.226;6.902;2023-04-01T05:18:51;7.87;;;1.53;;
4835;SDS011;66719;51.226;6.902;2023-04-01T05:21:18;6.30;;;1.13;;
4835;SDS011;66719;51.226;6.902;2023-04-01T05:23:44;6.57;;;1.50;;
4835;SDS011;66719;51.226;6.902;2023-04-01T05:26:11;6.20;;;1.17;;
4835;SDS011;66719;51.226;6.902;2023-04-01T05:28:40;6.87;;;1.40;;
4835;SDS011;66719;51.226;6.902;2023-04-01T05:31:07;7.53;;;1.50;;
4835;SDS011;66719;51.226;6.902;2023-04-01T05:33:33;7.80;;;1.53;;
4835;SDS011;66719;51.226;6.902;2023-04-01T05:36:11;9.10;;;1.30;;
4835;SDS011;66719;51.226;6.902;2023-04-01T05:38:39;6.17;;;1.23;;
4835;SDS011;66719;51.226;6.902;2023-04-01T05:41:06;8.07;;;1.60;;
4835;SDS011;66719;51.226;6.902;2023-04-01T05:43:35;6.70;;;1.47;;
4835;SDS011;66719;51.226;6.902;2023-04-01T05:46:02;8.80;;;1.40;;
4835;SDS011;66719;51.226;6.902;2023-04-01T05:48:28;10.70;;;1.80;;
4835;SDS011;66719;51.226;6.902;2023-04-01T05:50:55;7.00;;;1.67;;
4835;SDS011;66719;51.226;6.902;2023-04-01T05:53:21;7.80;;;1.87;;
4835;SDS011;66719;51.226;6.902;2023-04-01T05:55:49;7.80;;;1.67;;
4835;SDS011;66719;51.226;6.902;2023-04-01T05:58:17;6.53;;;1.33;;
4835;SDS011;66719;51.226;6.902;2023-04-01T06:00:43;8.10;;;1.80;;
4835;SDS011;66719;51.226;6.902;2023-04-01T06:03:11;6.73;;;1.50;;
4835;SDS011;66719;51.226;6.902;2023-04-01T06:05:39;9.50;;;1.60;;
4835;SDS011;66719;51.226;6.902;2023-04-01T06:08:17;9.27;;;1.50;;
4835;SDS011;66719;51.226;6.902;2023-04-01T06:13:40;6.70;;;1.47;;
4835;SDS011;66719;51.226;6.902;2023-04-01T06:19:32;8.17;;;1.87;;
4835;SDS011;66719;51.226;6.902;2023-04-01T06:24:59;7.40;;;2.13;;
4835;SDS011;66719;51.226;6.902;2023-04-01T06:30:39;7.23;;;1.80;;
4835;SDS011;66719;51.226;6.902;2023-04-01T06:38:22;10.27;;;2.10;;
4835;SDS011;66719;51.226;6.902;2023-04-01T06:46:29;6.87;;;1.90;;
4835;SDS011;66719;51.226;6.902;2023-04-01T06:57:57;9.33;;;2.77;;
4835;SDS011;66719;51.226;6.902;2023-04-01T07:00:28;9.53;;;2.37;;
4835;SDS011;66719;51.226;6.902;2023-04-01T07:03:19;8.33;;;2.03;;
4835;SDS011;66719;51.226;6.902;2023-04-01T07:05:56;7.50;;;2.20;;
4835;SDS011;66719;51.226;6.902;2023-04-01T07:08:28;7.10;;;1.77;;
4835;SDS011;66719;51.226;6.902;2023-04-01T07:11:02;7.00;;;1.80;;
4835;SDS011;66719;51.226;6.902;2023-04-01T07:13:35;11.47;;;2.23;;
4835;SDS011;66719;51.226;6.902;2023-04-01T07:19:06;6.90;;;1.50;;
4835;SDS011;66719;51.226;6.902;2023-04-01T07:21:44;9.40;;;1.70;;
4835;SDS011;66719;51.226;6.902;2023-04-01T07:26:52;7.73;;;1.60;;
4835;SDS011;66719;51.226;6.902;2023-04-01T07:29:21;9.30;;;2.43;;
4835;SDS011;66719;51.226;6.902;2023-04-01T07:40:48;9.80;;;3.30;;
4835;SDS011;66719;51.226;6.902;2023-04-01T07:52:23;7.60;;;2.00;;
4835;SDS011;66719;51.226;6.902;2023-04-01T07:55:07;6.87;;;1.67;;
4835;SDS011;66719;51.226;6.902;2023-04-01T08:00:21;7.10;;;1.77;;
4835;SDS011;66719;51.226;6.902;2023-04-01T08:05:27;8.43;;;1.93;;
4835;SDS011;66719;51.226;6.902;2023-04-01T08:16:25;7.50;;;2.00;;
4835;SDS011;66719;51.226;6.902;2023-04-01T08:19:04;8.47;;;2.70;;
4835;SDS011;66719;51.226;6.902;2023-04-01T08:21:38;7.63;;;2.30;;
4835;SDS011;66719;51.226;6.902;2023-04-01T08:32:42;8.10;;;2.33;;
4835;SDS011;66719;51.226;6.902;2023-04-01T08:35:58;7.57;;;2.00;;
4835;SDS011;66719;51.226;6.902;2023-04-01T08:38:13;6.90;;;1.80;;
4835;SDS011;66719;51.226;6.902;2023-04-01T08:41:01;8.90;;;2.17;;
4835;SDS011;66719;51.226;6.902;2023-04-01T08:52:02;7.37;;;1.73;;
4835;SDS011;66719;51.226;6.902;2023-04-01T08:54:56;10.00;;;2.00;;
4835;SDS011;66719;51.226;6.902;2023-04-01T08:57:35;7.97;;;2.37;;
4835;SDS011;66719;51.226;6.902;2023-04-01T09:00:18;8.00;;;2.30;;
4835;SDS011;66719;51.226;6.902;2023-04-01T09:35:22;11.93;;;4.60;;
4835;SDS011;66719;51.226;6.902;2023-04-01T09:37:57;9.07;;;4.20;;
4835;SDS011;66719;51.226;6.902;2023-04-01T09:40:48;10.50;;;4.83;;
4835;SDS011;66719;51.226;6.902;2023-04-01T09:51:56;9.70;;;3.90;;
4835;SDS011;66719;51.226;6.902;2023-04-01T09:57:29;9.27;;;3.80;;
4835;SDS011;66719;51.226;6.902;2023-04-01T10:12:22;12.73;;;6.90;;
4835;SDS011;66719;51.226;6.902;2023-04-01T10:35:18;12.40;;;5.67;;
4835;SDS011;66719;51.226;6.902;2023-04-01T10:43:21;10.57;;;5.30;;
4835;SDS011;66719;51.226;6.902;2023-04-01T10:51:53;10.20;;;4.97;;
4835;SDS011;66719;51.226;6.902;2023-04-01T11:03:34;9.43;;;3.17;;
4835;SDS011;66719;51.226;6.902;2023-04-01T11:06:50;8.90;;;3.30;;
4835;SDS011;66719;51.226;6.902;2023-04-01T11:09:53;8.70;;;3.23;;
4835;SDS011;66719;51.226;6.902;2023-04-01T11:12:49;12.20;;;3.30;;
4835;SDS011;66719;51.226;6.902;2023-04-01T11:15:41;10.13;;;3.80;;
4835;SDS011;66719;51.226;6.902;2023-04-01T11:18:25;8.67;;;3.40;;
4835;SDS011;66719;51.226;6.902;2023-04-01T11:27:44;10.23;;;4.77;;
4835;SDS011;66719;51.226;6.902;2023-04-01T11:33:34;10.10;;;5.00;;
4835;SDS011;66719;51.226;6.902;2023-04-01T11:36:07;9.53;;;4.80;;
4835;SDS011;66719;51.226;6.902;2023-04-01T11:58:10;13.43;;;7.33;;
4835;SDS011;66719;51.226;6.902;2023-04-01T12:00:59;11.13;;;5.20;;
4835;SDS011;66719;51.226;6.902;2023-04-01T12:20:20;10.97;;;6.10;;
4835;SDS011;66719;51.226;6.902;2023-04-01T12:28:18;14.10;;;7.53;;
4835;SDS011;66719;51.226;6.902;2023-04-01T12:37:03;12.93;;;7.90;;
4835;SDS011;66719;51.226;6.902;2023-04-01T12:42:09;13.50;;;8.10;;
4835;SDS011;66719;51.226;6.902;2023-04-01T12:54:02;16.00;;;9.23;;
4835;SDS011;66719;51.226;6.902;2023-04-01T12:57:07;19.93;;;10.00;;
4835;SDS011;66719;51.226;6.902;2023-04-01T13:02:53;15.43;;;10.03;;
4835;SDS011;66719;51.226;6.902;2023-04-01T13:08:24;17.03;;;9.87;;
4835;SDS011;66719;51.226;6.902;2023-04-01T13:11:33;16.43;;;8.47;;
4835;SDS011;66719;51.226;6.902;2023-04-01T13:19:54;13.53;;;7.00;;
4835;SDS011;66719;51.226;6.902;2023-04-01T13:37:02;15.10;;;8.67;;
4835;SDS011;66719;51.226;6.902;2023-04-01T13:42:43;13.07;;;7.90;;
4835;SDS011;66719;51.226;6.902;2023-04-01T13:45:32;13.00;;;7.83;;
4835;SDS011;66719;51.226;6.902;2023-04-01T13:51:14;13.23;;;7.33;;
4835;SDS011;66719;51.226;6.902;2023-04-01T14:20:17;14.67;;;8.10;;
4835;SDS011;66719;51.226;6.902;2023-04-01T14:28:32;10.20;;;5.27;;
4835;SDS011;66719;51.226;6.902;2023-04-01T14:50:43;11.80;;;6.80;;
4835;SDS011;66719;51.226;6.902;2023-04-01T14:56:00;11.10;;;6.43;;
4835;SDS011;66719;51.226;6.902;2023-04-01T14:58:45;14.17;;;7.73;;
4835;SDS011;66719;51.226;6.902;2023-04-01T15:04:23;12.33;;;7.23;;
4835;SDS011;66719;51.226;6.902;2023-04-01T15:07:03;13.50;;;8.87;;
4835;SDS011;66719;51.226;6.902;2023-04-01T15:26:54;13.83;;;5.70;;
4835;SDS011;66719;51.226;6.902;2023-04-01T15:35:46;11.70;;;5.73;;
4835;SDS011;66719;51.226;6.902;2023-04-01T15:43:42;11.33;;;5.30;;
4835;SDS011;66719;51.226;6.902;2023-04-01T15:48:54;9.23;;;4.60;;
4835;SDS011;66719;51.226;6.902;2023-04-01T15:54:32;13.80;;;5.60;;
4835;SDS011;66719;51.226;6.902;2023-04-01T16:02:48;10.87;;;6.07;;
4835;SDS011;66719;51.226;6.902;2023-04-01T16:10:17;11.03;;;6.07;;
4835;SDS011;66719;51.226;6.902;2023-04-01T16:16:06;10.33;;;5.50;;
4835;SDS011;66719;51.226;6.902;2023-04-01T16:21:38;10.87;;;5.50;;
4835;SDS011;66719;51.226;6.902;2023-04-01T16:24:54;10.30;;;5.40;;
4835;SDS011;66719;51.226;6.902;2023-04-01T16:27:08;11.00;;;5.23;;
4835;SDS011;66719;51.226;6.902;2023-04-01T16:29:55;11.07;;;5.40;;
4835;SDS011;66719;51.226;6.902;2023-04-01T16:35:19;11.70;;;6.20;;
4835;SDS011;66719;51.226;6.902;2023-04-01T16:38:09;12.23;;;7.37;;
4835;SDS011;66719;51.226;6.902;2023-04-01T16:40:42;13.80;;;7.40;;
4835;SDS011;66719;51.226;6.902;2023-04-01T16:43:19;12.60;;;7.77;;
4835;SDS011;66719;51.226;6.902;2023-04-01T16:54:43;12.93;;;7.40;;
4835;SDS011;66719;51.226;6.902;2023-04-01T17:00:29;12.60;;;6.50;;
4835;SDS011;66719;51.226;6.902;2023-04-01T17:06:14;13.87;;;7.80;;
4835;SDS011;66719;51.226;6.902;2023-04-01T17:09:09;13.07;;;7.60;;
4835;SDS011;66719;51.226;6.902;2023-04-01T17:11:56;13.77;;;6.80;;
4835;SDS011;66719;51.226;6.902;2023-04-01T17:14:54;12.23;;;6.50;;
4835;SDS011;66719;51.226;6.902;2023-04-01T17:20:35;11.87;;;5.47;;
4835;SDS011;66719;51.226;6.902;2023-04-01T17:26:03;11.23;;;5.70;;
4835;SDS011;66719;51.226;6.902;2023-04-01T17:28:57;13.53;;;5.77;;
4835;SDS011;66719;51.226;6.902;2023-04-01T17:31:34;10.60;;;5.50;;
4835;SDS011;66719;51.226;6.902;2023-04-01T17:34:36;12.37;;;6.40;;
4835;SDS011;66719;51.226;6.902;2023-04-01T17:37:16;11.80;;;6.20;;
4835;SDS011;66719;51.226;6.902;2023-04-01T17:40:20;13.23;;;5.90;;
4835;SDS011;66719;51.226;6.902;2023-04-01T17:42:58;10.80;;;5.37;;
4835;SDS011;66719;51.226;6.902;2023-04-01T17:45:42;10.37;;;5.43;;
4835;SDS011;66719;51.226;6.902;2023-04-01T17:51:16;10.50;;;5.47;;
4835;SDS011;66719;51.226;6.902;2023-04-01T17:54:12;12.00;;;5.57;;
4835;SDS011;66719;51.226;6.902;2023-04-01T17:56:39;11.57;;;5.67;;
4835;SDS011;66719;51.226;6.902;2023-04-01T17:59:19;12.93;;;5.40;;
4835;SDS011;66719;51.226;6.902;2023-04-01T18:21:50;14.97;;;8.80;;
4835;SDS011;66719;51.226;6.902;2023-04-01T18:27:11;12.53;;;7.00;;
4835;SDS011;66719;51.226;6.902;2023-04-01T18:37:54;14.20;;;7.47;;
4835;SDS011;66719;51.226;6.902;2023-04-01T18:40:39;12.90;;;6.83;;
4835;SDS011;66719;51.226;6.902;2023-04-01T18:45:44;14.43;;;7.70;;
4835;SDS011;66719;51.226;6.902;2023-04-01T18:51:11;20.70;;;9.47;;
4835;SDS011;66719;51.226;6.902;2023-04-01T18:56:38;14.50;;;8.73;;
4835;SDS011;66719;51.226;6.902;2023-04-01T18:59:28;15.30;;;9.50;;
4835;SDS011;66719;51.226;6.902;2023-04-01T19:07:39;12.90;;;7.03;;
4835;SDS011;66719;51.226;6.902;2023-04-01T19:10:15;11.63;;;5.40;;
4835;SDS011;66719;51.226;6.902;2023-04-01T19:16:09;11.80;;;6.60;;
4835;SDS011;66719;51.226;6.902;2023-04-01T19:21:37;15.77;;;8.27;;
4835;SDS011;66719;51.226;6.902;2023-04-01T19:29:48;14.17;;;8.43;;
4835;SDS011;66719;51.226;6.902;2023-04-01T19:52:04;12.77;;;7.10;;
4835;SDS011;66719;51.226;6.902;2023-04-01T19:54:42;14.40;;;7.23;;
4835;SDS011;66719;51.226;6.902;2023-04-01T19:59:50;12.17;;;6.50;;
4835;SDS011;66719;51.226;6.902;2023-04-01T20:05:25;11.77;;;6.40;;
4835;SDS011;66719;51.226;6.902;2023-04-01T20:16:20;12.93;;;7.00;;
4835;SDS011;66719;51.226;6.902;2023-04-01T20:24:26;12.00;;;7.30;;
4835;SDS011;66719;51.226;6.902;2023-04-01T20:27:00;13.13;;;7.20;;
4835;SDS011;66719;51.226;6.902;2023-04-01T20:29:53;12.53;;;7.30;;
4835;SDS011;66719;51.226;6.902;2023-04-01T20:37:34;13.93;;;8.03;;
4835;SDS011;66719;51.226;6.902;2023-04-01T20:53:27;14.93;;;8.93;;
4835;SDS011;66719;51.226;6.902;2023-04-01T21:15:39;17.00;;;9.57;;
4835;SDS011;66719;51.226;6.902;2023-04-01T21:18:15;12.60;;;7.27;;
4835;SDS011;66719;51.226;6.902;2023-04-01T21:21:16;13.33;;;6.67;;
4835;SDS011;66719;51.226;6.902;2023-04-01T21:32:26;8.73;;;3.97;;
4835;SDS011;66719;51.226;6.902;2023-04-01T21:37:45;8.83;;;4.10;;
4835;SDS011;66719;51.226;6.902;2023-04-01T21:58:09;8.80;;;3.90;;
4835;SDS011;66719;51.226;6.902;2023-04-01T22:01:12;15.03;;;4.33;;
4835;SDS011;66719;51.226;6.902;2023-04-01T22:04:20;10.47;;;3.60;;
4835;SDS011;66719;51.226;6.902;2023-04-01T22:07:18;9.70;;;3.90;;
4835;SDS011;66719;51.226;6.902;2023-04-01T22:10:10;9.43;;;4.60;;
4835;SDS011;66719;51.226;6.902;2023-04-01T22:12:54;9.60;;;4.60;;
4835;SDS011;66719;51.226;6.902;2023-04-01T22:19:07;11.10;;;5.53;;
4835;SDS011;66719;51.226;6.902;2023-04-01T22:21:48;10.47;;;5.23;;
4835;SDS011;66719;51.226;6.902;2023-04-01T22:27:29;9.90;;;4.87;;
4835;SDS011;66719;51.226;6.902;2023-04-01T22:30:03;9.53;;;4.67;;
4835;SDS011;66719;51.226;6.902;2023-04-01T22:32:32;10.90;;;5.67;;
4835;SDS011;66719;51.226;6.902;2023-04-01T22:37:49;9.90;;;4.87;;
4835;SDS011;66719;51.226;6.902;2023-04-01T22:46:05;12.03;;;5.10;;
4835;SDS011;66719;51.226;6.902;2023-04-01T22:48:57;11.60;;;5.00;;
4835;SDS011;66719;51.226;6.902;2023-04-01T22:51:41;10.83;;;5.50;;
4835;SDS011;66719;51.226;6.902;2023-04-01T22:57:03;10.80;;;5.87;;
4835;SDS011;66719;51.226;6.902;2023-04-01T22:59:52;13.97;;;7.10;;
4835;SDS011;66719;51.226;6.902;2023-04-01T23:02:28;12.20;;;6.13;;
4835;SDS011;66719;51.226;6.902;2023-04-01T23:05:02;11.97;;;7.23;;
4835;SDS011;66719;51.226;6.902;2023-04-01T23:10:32;12.77;;;7.60;;
4835;SDS011;66719;51.226;6.902;2023-04-01T23:13:12;12.80;;;7.37;;
4835;SDS011;66719;51.226;6.902;2023-04-01T23:16:04;12.77;;;7.37;;
4835;SDS011;66719;51.226;6.902;2023-04-01T23:18:52;14.30;;;7.77;;
4835;SDS011;66719;51.226;6.902;2023-04-01T23:21:39;12.97;;;8.47;;
4835;SDS011;66719;51.226;6.902;2023-04-01T23:27:06;12.60;;;7.90;;
4835;SDS011;66719;51.226;6.902;2023-04-01T23:29:45;14.63;;;8.07;;
4835;SDS011;66719;51.226;6.902;2023-04-01T23:32:13;12.17;;;7.63;;
4835;SDS011;66719;51.226;6.902;2023-04-01T23:34:49;11.70;;;7.27;;
4835;SDS011;66719;51.226;6.902;2023-04-01T23:37:18;12.10;;;6.87;;
4835;SDS011;66719;51.226;6.902;2023-04-01T23:39:48;12.60;;;6.83;;
4835;SDS011;66719;51.226;6.902;2023-04-01T23:42:27;11.70;;;7.00;;
4835;SDS011;66719;51.226;6.902;2023-04-01T23:44:58;11.57;;;7.00;;
4835;SDS011;66719;51.226;6.902;2023-04-01T23:47:31;12.60;;;7.60;;
4835;SDS011;66719;51.226;6.902;2023-04-01T23:50:13;16.30;;;7.07;;
4835;SDS011;66719;51.226;6.902;2023-04-01T23:52:48;12.47;;;7.47;;
4835;SDS011;66719;51.226;6.902;2023-04-01T23:58:00;13.33;;;6.33;;
